sensor_id;sensor_type;location;lat;lon;timestamp;P1;durP1;ratioP1;P2;durP2;ratioP2
69053;SDS011;56125;52.242;4.756;2023-04-01T00:03:12;5.90;;;1.90;;
69053;SDS011;56125;52.242;4.756;2023-04-01T00:08:13;5.68;;;1.73;;
69053;SDS011;56125;52.242;4.756;2023-04-01T00:13:15;5.33;;;1.90;;
69053;SDS011;56125;52.242;4.756;2023-04-01T00:18:16;6.90;;;1.92;;
69053;SDS011;56125;52.242;4.756;2023-04-01T00:23:18;13.90;;;1.97;;
69053;SDS011;56125;52.242;4.756;2023-04-01T00:28:20;6.20;;;1.55;;
69053;SDS011;56125;52.242;4.756;2023-04-01T00:33:21;7.30;;;2.10;;
69053;SDS011;56125;52.242;4.756;2023-04-01T00:38:22;6.20;;;1.73;;
69053;SDS011;56125;52.242;4.756;2023-04-01T00:43:23;5.20;;;1.40;;
69053;SDS011;56125;52.242;4.756;2023-04-01T00:48:31;6.22;;;1.45;;
69053;SDS011;56125;52.242;4.756;2023-04-01T00:53:36;5.90;;;1.60;;
69053;SDS011;56125;52.242;4.756;2023-04-01T00:58:43;3.25;;;1.20;;
69053;SDS011;56125;52.242;4.756;2023-04-01T01:03:47;7.40;;;1.63;;
69053;SDS011;56125;52.242;4.756;2023-04-01T01:09:06;6.53;;;1.70;;
69053;SDS011;56125;52.242;4.756;2023-04-01T01:19:57;3.75;;;1.42;;
69053;SDS011;56125;52.242;4.756;2023-04-01T01:25:10;3.83;;;1.00;;
69053;SDS011;56125;52.242;4.756;2023-04-01T01:30:31;6.20;;;1.42;;
69053;SDS011;56125;52.242;4.756;2023-04-01T01:35:48;3.30;;;1.50;;
69053;SDS011;56125;52.242;4.756;2023-04-01T01:40:52;5.60;;;1.58;;
69053;SDS011;56125;52.242;4.756;2023-04-01T01:45:58;4.93;;;1.73;;
69053;SDS011;56125;52.242;4.756;2023-04-01T01:51:04;5.07;;;1.70;;
69053;SDS011;56125;52.242;4.756;2023-04-01T01:56:06;5.90;;;1.60;;
69053;SDS011;56125;52.242;4.756;2023-04-01T02:01:10;4.38;;;1.58;;
69053;SDS011;56125;52.242;4.756;2023-04-01T02:06:15;4.07;;;1.50;;
69053;SDS011;56125;52.242;4.756;2023-04-01T02:11:21;2.67;;;1.20;;
69053;SDS011;56125;52.242;4.756;2023-04-01T02:21:40;3.80;;;1.38;;
69053;SDS011;56125;52.242;4.756;2023-04-01T02:26:43;5.37;;;1.40;;
69053;SDS011;56125;52.242;4.756;2023-04-01T02:31:46;4.70;;;1.40;;
69053;SDS011;56125;52.242;4.756;2023-04-01T02:36:48;3.47;;;1.50;;
69053;SDS011;56125;52.242;4.756;2023-04-01T02:41:50;2.38;;;1.38;;
69053;SDS011;56125;52.242;4.756;2023-04-01T02:46:51;4.10;;;1.60;;
69053;SDS011;56125;52.242;4.756;2023-04-01T02:51:53;2.60;;;1.33;;
69053;SDS011;56125;52.242;4.756;2023-04-01T02:56:54;5.10;;;1.53;;
69053;SDS011;56125;52.242;4.756;2023-04-01T03:01:55;3.97;;;1.27;;
69053;SDS011;56125;52.242;4.756;2023-04-01T03:06:56;1.97;;;1.33;;
69053;SDS011;56125;52.242;4.756;2023-04-01T03:11:57;2.85;;;1.50;;
69053;SDS011;56125;52.242;4.756;2023-04-01T03:16:58;2.87;;;1.40;;
69053;SDS011;56125;52.242;4.756;2023-04-01T03:21:59;3.00;;;1.40;;
69053;SDS011;56125;52.242;4.756;2023-04-01T03:27:00;3.23;;;1.80;;
69053;SDS011;56125;52.242;4.756;2023-04-01T03:32:01;2.47;;;1.50;;
69053;SDS011;56125;52.242;4.756;2023-04-01T03:37:02;3.17;;;1.40;;
69053;SDS011;56125;52.242;4.756;2023-04-01T03:42:04;2.28;;;1.40;;
69053;SDS011;56125;52.242;4.756;2023-04-01T03:47:06;3.03;;;1.43;;
69053;SDS011;56125;52.242;4.756;2023-04-01T03:52:10;2.15;;;1.50;;
69053;SDS011;56125;52.242;4.756;2023-04-01T03:57:11;3.27;;;1.30;;
69053;SDS011;56125;52.242;4.756;2023-04-01T04:02:12;2.13;;;1.30;;
69053;SDS011;56125;52.242;4.756;2023-04-01T04:07:13;2.73;;;1.73;;
69053;SDS011;56125;52.242;4.756;2023-04-01T04:12:14;3.30;;;1.73;;
69053;SDS011;56125;52.242;4.756;2023-04-01T04:17:15;2.83;;;1.63;;
69053;SDS011;56125;52.242;4.756;2023-04-01T04:22:16;2.95;;;1.60;;
69053;SDS011;56125;52.242;4.756;2023-04-01T04:27:17;2.70;;;1.90;;
69053;SDS011;56125;52.242;4.756;2023-04-01T04:32:18;3.35;;;1.60;;
69053;SDS011;56125;52.242;4.756;2023-04-01T04:37:19;3.83;;;1.87;;
69053;SDS011;56125;52.242;4.756;2023-04-01T04:42:20;3.45;;;1.85;;
69053;SDS011;56125;52.242;4.756;2023-04-01T04:47:21;3.60;;;1.60;;
69053;SDS011;56125;52.242;4.756;2023-04-01T04:52:22;3.83;;;2.03;;
69053;SDS011;56125;52.242;4.756;2023-04-01T04:57:23;3.23;;;1.93;;
69053;SDS011;56125;52.242;4.756;2023-04-01T05:02:25;4.32;;;2.08;;
69053;SDS011;56125;52.242;4.756;2023-04-01T05:07:26;3.93;;;2.13;;
69053;SDS011;56125;52.242;4.756;2023-04-01T05:12:27;3.63;;;2.20;;
69053;SDS011;56125;52.242;4.756;2023-04-01T05:17:28;3.77;;;1.77;;
69053;SDS011;56125;52.242;4.756;2023-04-01T05:22:29;3.22;;;1.95;;
69053;SDS011;56125;52.242;4.756;2023-04-01T05:27:30;4.87;;;2.13;;
69053;SDS011;56125;52.242;4.756;2023-04-01T05:32:32;4.65;;;2.10;;
69053;SDS011;56125;52.242;4.756;2023-04-01T05:37:33;4.57;;;2.03;;
69053;SDS011;56125;52.242;4.756;2023-04-01T05:42:35;3.75;;;2.13;;
69053;SDS011;56125;52.242;4.756;2023-04-01T05:47:36;2.97;;;2.20;;
69053;SDS011;56125;52.242;4.756;2023-04-01T05:52:37;4.63;;;2.28;;
69053;SDS011;56125;52.242;4.756;2023-04-01T05:57:38;3.43;;;1.77;;
69053;SDS011;56125;52.242;4.756;2023-04-01T06:02:40;5.57;;;2.28;;
69053;SDS011;56125;52.242;4.756;2023-04-01T06:07:42;5.63;;;2.50;;
69053;SDS011;56125;52.242;4.756;2023-04-01T06:23:15;12.23;;;3.28;;
69053;SDS011;56125;52.242;4.756;2023-04-01T06:28:30;9.03;;;3.23;;
69053;SDS011;56125;52.242;4.756;2023-04-01T06:33:45;10.48;;;3.47;;
69053;SDS011;56125;52.242;4.756;2023-04-01T06:39:05;10.90;;;3.70;;
69053;SDS011;56125;52.242;4.756;2023-04-01T06:49:33;7.33;;;3.10;;
69053;SDS011;56125;52.242;4.756;2023-04-01T07:00:29;12.30;;;3.43;;
69053;SDS011;56125;52.242;4.756;2023-04-01T07:05:41;9.18;;;3.33;;
69053;SDS011;56125;52.242;4.756;2023-04-01T07:10:47;8.47;;;2.93;;
69053;SDS011;56125;52.242;4.756;2023-04-01T07:15:59;12.18;;;4.13;;
69053;SDS011;56125;52.242;4.756;2023-04-01T07:21:29;8.53;;;3.00;;
69053;SDS011;56125;52.242;4.756;2023-04-01T07:26:55;10.05;;;3.67;;
69053;SDS011;56125;52.242;4.756;2023-04-01T07:37:28;9.82;;;3.10;;
69053;SDS011;56125;52.242;4.756;2023-04-01T07:48:23;6.18;;;2.88;;
69053;SDS011;56125;52.242;4.756;2023-04-01T07:53:36;9.03;;;3.30;;
69053;SDS011;56125;52.242;4.756;2023-04-01T08:20:16;7.38;;;3.00;;
69053;SDS011;56125;52.242;4.756;2023-04-01T08:25:38;6.13;;;2.90;;
69053;SDS011;56125;52.242;4.756;2023-04-01T08:31:03;6.75;;;3.08;;
69053;SDS011;56125;52.242;4.756;2023-04-01T08:36:15;7.77;;;3.47;;
69053;SDS011;56125;52.242;4.756;2023-04-01T08:52:37;5.63;;;2.88;;
69053;SDS011;56125;52.242;4.756;2023-04-01T08:58:13;4.60;;;2.70;;
69053;SDS011;56125;52.242;4.756;2023-04-01T09:03:36;6.28;;;3.22;;
69053;SDS011;56125;52.242;4.756;2023-04-01T09:30:11;5.60;;;3.27;;
69053;SDS011;56125;52.242;4.756;2023-04-01T09:35:22;3.92;;;2.80;;
69053;SDS011;56125;52.242;4.756;2023-04-01T09:40:47;5.70;;;2.90;;
69053;SDS011;56125;52.242;4.756;2023-04-01T09:56:48;4.55;;;2.38;;
69053;SDS011;56125;52.242;4.756;2023-04-01T10:02:08;3.80;;;2.20;;
69053;SDS011;56125;52.242;4.756;2023-04-01T10:08:03;3.25;;;1.83;;
69053;SDS011;56125;52.242;4.756;2023-04-01T10:13:36;4.00;;;1.93;;
69053;SDS011;56125;52.242;4.756;2023-04-01T10:24:33;6.17;;;2.30;;
69053;SDS011;56125;52.242;4.756;2023-04-01T10:29:50;4.45;;;2.00;;
69053;SDS011;56125;52.242;4.756;2023-04-01T10:40:53;2.65;;;1.80;;
69053;SDS011;56125;52.242;4.756;2023-04-01T10:46:30;3.70;;;2.13;;
69053;SDS011;56125;52.242;4.756;2023-04-01T11:01:56;3.58;;;2.20;;
69053;SDS011;56125;52.242;4.756;2023-04-01T11:23:47;2.50;;;1.67;;
69053;SDS011;56125;52.242;4.756;2023-04-01T11:39:33;2.77;;;2.00;;
69053;SDS011;56125;52.242;4.756;2023-04-01T11:44:58;3.65;;;1.95;;
69053;SDS011;56125;52.242;4.756;2023-04-01T12:22:34;2.47;;;2.00;;
69053;SDS011;56125;52.242;4.756;2023-04-01T12:28:00;2.65;;;1.75;;
69053;SDS011;56125;52.242;4.756;2023-04-01T12:38:43;3.53;;;1.83;;
69053;SDS011;56125;52.242;4.756;2023-04-01T12:44:14;3.70;;;1.77;;
69053;SDS011;56125;52.242;4.756;2023-04-01T12:50:16;4.28;;;1.98;;
69053;SDS011;56125;52.242;4.756;2023-04-01T12:55:42;4.00;;;1.57;;
69053;SDS011;56125;52.242;4.756;2023-04-01T13:00:48;3.22;;;2.00;;
69053;SDS011;56125;52.242;4.756;2023-04-01T13:17:05;1.83;;;1.60;;
69053;SDS011;56125;52.242;4.756;2023-04-01T13:22:24;1.92;;;1.60;;
69053;SDS011;56125;52.242;4.756;2023-04-01T13:27:46;2.37;;;1.70;;
69053;SDS011;56125;52.242;4.756;2023-04-01T13:38:00;2.20;;;1.50;;
69053;SDS011;56125;52.242;4.756;2023-04-01T13:43:24;1.45;;;1.35;;
69053;SDS011;56125;52.242;4.756;2023-04-01T13:48:41;2.13;;;1.63;;
69053;SDS011;56125;52.242;4.756;2023-04-01T14:15:50;1.55;;;1.20;;
69053;SDS011;56125;52.242;4.756;2023-04-01T14:21:12;1.87;;;1.40;;
69053;SDS011;56125;52.242;4.756;2023-04-01T15:14:46;1.63;;;1.30;;
69053;SDS011;56125;52.242;4.756;2023-04-01T15:20:16;1.48;;;1.30;;
69053;SDS011;56125;52.242;4.756;2023-04-01T15:25:25;1.10;;;0.80;;
69053;SDS011;56125;52.242;4.756;2023-04-01T15:30:45;2.17;;;1.50;;
69053;SDS011;56125;52.242;4.756;2023-04-01T15:41:22;1.42;;;1.30;;
69053;SDS011;56125;52.242;4.756;2023-04-01T15:51:51;1.38;;;1.17;;
69053;SDS011;56125;52.242;4.756;2023-04-01T16:18:58;1.30;;;1.10;;
69053;SDS011;56125;52.242;4.756;2023-04-01T16:24:35;2.45;;;1.10;;
69053;SDS011;56125;52.242;4.756;2023-04-01T16:29:48;1.30;;;1.00;;
69053;SDS011;56125;52.242;4.756;2023-04-01T16:40:43;2.67;;;1.10;;
69053;SDS011;56125;52.242;4.756;2023-04-01T16:51:37;2.00;;;1.50;;
69053;SDS011;56125;52.242;4.756;2023-04-01T16:56:49;1.25;;;1.10;;
69053;SDS011;56125;52.242;4.756;2023-04-01T17:02:08;1.07;;;0.90;;
69053;SDS011;56125;52.242;4.756;2023-04-01T17:28:53;2.55;;;1.10;;
69053;SDS011;56125;52.242;4.756;2023-04-01T17:39:37;1.27;;;1.10;;
69053;SDS011;56125;52.242;4.756;2023-04-01T17:44:57;2.45;;;0.77;;
69053;SDS011;56125;52.242;4.756;2023-04-01T17:50:14;0.77;;;0.70;;
69053;SDS011;56125;52.242;4.756;2023-04-01T17:55:33;1.60;;;0.90;;
69053;SDS011;56125;52.242;4.756;2023-04-01T18:01:21;1.48;;;1.10;;
69053;SDS011;56125;52.242;4.756;2023-04-01T18:06:46;1.85;;;0.82;;
69053;SDS011;56125;52.242;4.756;2023-04-01T18:12:31;1.13;;;0.90;;
69053;SDS011;56125;52.242;4.756;2023-04-01T18:18:06;0.98;;;0.82;;
69053;SDS011;56125;52.242;4.756;2023-04-01T18:38:45;1.00;;;0.80;;
69053;SDS011;56125;52.242;4.756;2023-04-01T18:49:48;1.73;;;0.80;;
69053;SDS011;56125;52.242;4.756;2023-04-01T18:55:18;6.40;;;1.00;;
69053;SDS011;56125;52.242;4.756;2023-04-01T19:00:27;1.20;;;0.82;;
69053;SDS011;56125;52.242;4.756;2023-04-01T19:05:36;1.48;;;1.10;;
69053;SDS011;56125;52.242;4.756;2023-04-01T19:10:41;0.93;;;0.80;;
69053;SDS011;56125;52.242;4.756;2023-04-01T19:32:14;1.58;;;0.80;;
69053;SDS011;56125;52.242;4.756;2023-04-01T19:37:44;1.30;;;0.90;;
69053;SDS011;56125;52.242;4.756;2023-04-01T19:43:00;2.08;;;1.10;;
69053;SDS011;56125;52.242;4.756;2023-04-01T19:48:16;1.10;;;0.90;;
69053;SDS011;56125;52.242;4.756;2023-04-01T19:53:42;1.60;;;1.20;;
69053;SDS011;56125;52.242;4.756;2023-04-01T19:58:54;1.33;;;1.20;;
69053;SDS011;56125;52.242;4.756;2023-04-01T20:04:01;3.08;;;1.00;;
69053;SDS011;56125;52.242;4.756;2023-04-01T20:14:36;1.40;;;0.90;;
69053;SDS011;56125;52.242;4.756;2023-04-01T20:24:58;1.17;;;1.00;;
69053;SDS011;56125;52.242;4.756;2023-04-01T20:40:38;2.60;;;1.08;;
69053;SDS011;56125;52.242;4.756;2023-04-01T20:51:15;1.88;;;1.10;;
69053;SDS011;56125;52.242;4.756;2023-04-01T21:06:49;1.30;;;1.13;;
69053;SDS011;56125;52.242;4.756;2023-04-01T21:12:22;1.35;;;1.10;;
69053;SDS011;56125;52.242;4.756;2023-04-01T21:17:41;1.63;;;0.93;;
69053;SDS011;56125;52.242;4.756;2023-04-01T21:23:44;2.60;;;1.20;;
69053;SDS011;56125;52.242;4.756;2023-04-01T21:28:35;1.50;;;0.98;;
69053;SDS011;56125;52.242;4.756;2023-04-01T21:33:56;0.93;;;0.82;;
69053;SDS011;56125;52.242;4.756;2023-04-01T21:39:33;1.60;;;1.02;;
69053;SDS011;56125;52.242;4.756;2023-04-01T21:55:39;1.50;;;1.20;;
69053;SDS011;56125;52.242;4.756;2023-04-01T22:16:47;1.48;;;1.25;;
69053;SDS011;56125;52.242;4.756;2023-04-01T22:27:44;2.03;;;1.30;;
69053;SDS011;56125;52.242;4.756;2023-04-01T22:33:06;1.35;;;1.17;;
69053;SDS011;56125;52.242;4.756;2023-04-01T22:43:42;2.10;;;1.30;;
69053;SDS011;56125;52.242;4.756;2023-04-01T22:48:51;3.40;;;1.50;;
69053;SDS011;56125;52.242;4.756;2023-04-01T22:54:09;2.55;;;1.23;;
69053;SDS011;56125;52.242;4.756;2023-04-01T23:04:29;2.85;;;1.17;;
69053;SDS011;56125;52.242;4.756;2023-04-01T23:09:35;1.95;;;1.35;;
69053;SDS011;56125;52.242;4.756;2023-04-01T23:14:46;1.63;;;1.20;;
69053;SDS011;56125;52.242;4.756;2023-04-01T23:40:56;2.42;;;1.50;;
69053;SDS011;56125;52.242;4.756;2023-04-01T23:45:58;2.40;;;1.60;;
69053;SDS011;56125;52.242;4.756;2023-04-01T23:51:05;2.25;;;1.52;;
69053;SDS011;56125;52.242;4.756;2023-04-01T23:56:17;3.13;;;1.63;;
